Accueil
METAR-TAF:

METAR-TAF

Aéroports :

Aéroport de Mont-Joli

Mont-Joli, Québec, Canada

latitude: 48-36N, longitude: 068-13W, altitude: 48 m

Observation

Le bulletin a été fait il y a 22 minutes, à 03:00 UTC
Vent 4 kt de sud-est
Température 12°C
Humidité 94%
Pression 1016 hPa
Visibilité: 48.3 km
Ciel clair

METAR: CYYY 190300Z 13004KT 30SM SKC 12/11 A3000 RMK SLP163

Heure: 23:22 (03:22 UTC)

Prévision

Le bulletin a été fait il y a 1 heure et 44 minutes, à 01:38 UTC
Prévision valable du 19 à 02 UTC au 19 à 14 UTC
Vent 6 kt de est/nord-est
Visibilité: 10 km
Quelques nuages à une hauteur de 3000 ft

TAF: CYYY 190138Z 1902/1914 07006KT P6SM FEW030 RMK NXT FCST BY 190800Z

Observations et prévisions météorologiques de plus de 4000 aéroports (messages METAR et TAF).

Les stations disponibles sont représentées par des disques jaunes et rouges sur la carte.

Passer la souris dessus pour voir le nom de la station.

Cliquer dessus pour voir les observations et prévisions météorologiques.

Pour changer de carte: cliquez sur les boutons verts avec une croix noire pour zoomer, sur le bouton vert avec un tiret pour effectuer un zoom arrière, ou sur les flèches vertes pour les cartes adjacentes.


METAR-TAF: